Time;durP1;ratioP1;P1;durP2;ratioP2;P2;SDS_P1;SDS_P2;PMS_P1;PMS_P2;Temp;Humidity;BMP_temperature;BMP_pressure;BME280_temperature;BME280_humidity;BME280_pressure;Samples;Min_cycle;Max_cycle;Signal;HPM_P1;HPM_P2
2021/07/13 00:01:37;;;;;;;5.85;2.65;;;21.30;94.00;;;;;;4956832;29;20674;-75
2021/07/13 00:04:03;;;;;;;5.53;2.83;;;21.30;93.90;;;;;;4957355;29;20031;-75
2021/07/13 00:06:29;;;;;;;6.35;2.92;;;21.20;93.90;;;;;;4939316;29;20027;-75
2021/07/13 00:08:54;;;;;;;5.82;2.70;;;21.20;94.10;;;;;;4957135;29;20488;-76
2021/07/13 00:11:21;;;;;;;6.25;3.42;;;21.20;94.30;;;;;;4939206;29;20062;-76
2021/07/13 00:13:48;;;;;;;8.13;3.20;;;21.20;94.40;;;;;;4957118;29;20034;-75
2021/07/13 00:16:15;;;;;;;6.28;3.08;;;21.10;94.50;;;;;;4939770;29;20067;-75
2021/07/13 00:18:40;;;;;;;7.25;3.42;;;21.10;94.60;;;;;;4939261;29;20461;-75
2021/07/13 00:21:07;;;;;;;5.95;3.22;;;21.10;94.60;;;;;;4956495;29;20035;-75
2021/07/13 00:23:34;;;;;;;5.13;3.00;;;21.10;94.80;;;;;;4956540;29;20496;-75
2021/07/13 00:26:00;;;;;;;6.30;3.30;;;21.10;94.90;;;;;;4956870;29;20042;-75
2021/07/13 00:28:26;;;;;;;5.55;3.10;;;21.10;94.90;;;;;;4939121;29;20035;-75
2021/07/13 00:30:51;;;;;;;4.40;3.47;;;21.10;94.80;;;;;;4939338;29;20063;-75
2021/07/13 00:33:17;;;;;;;7.03;3.78;;;21.00;95.00;;;;;;4939200;29;20420;-76
2021/07/13 00:35:43;;;;;;;7.07;3.85;;;20.90;95.30;;;;;;4955825;29;20488;-75
2021/07/13 00:38:08;;;;;;;5.32;3.28;;;21.00;95.20;;;;;;4956405;29;20027;-75
2021/07/13 00:40:34;;;;;;;5.05;3.28;;;21.00;95.20;;;;;;4955308;29;20068;-75
2021/07/13 00:43:00;;;;;;;6.32;3.80;;;21.00;95.10;;;;;;4938798;29;20461;-74
2021/07/13 00:45:26;;;;;;;4.65;3.55;;;21.00;95.10;;;;;;4938055;29;20468;-75
2021/07/13 00:47:53;;;;;;;5.03;3.65;;;21.00;95.10;;;;;;4938729;29;20033;-75
2021/07/13 00:50:21;;;;;;;6.10;3.55;;;21.00;95.10;;;;;;4938295;29;20122;-76
2021/07/13 00:52:47;;;;;;;6.50;4.07;;;21.10;95.00;;;;;;4938408;29;20027;-75
2021/07/13 00:55:13;;;;;;;8.82;3.70;;;21.10;94.80;;;;;;4938667;29;20042;-75
2021/07/13 00:57:40;;;;;;;6.40;3.55;;;21.10;94.80;;;;;;4938544;29;20026;-74
2021/07/13 01:00:08;;;;;;;5.25;3.65;;;21.10;94.70;;;;;;4955549;29;20055;-74
2021/07/13 01:02:34;;;;;;;7.07;3.90;;;21.10;94.80;;;;;;4955100;29;20563;-75
2021/07/13 01:05:01;;;;;;;6.43;3.47;;;21.00;94.90;;;;;;4955988;29;20060;-75
2021/07/13 01:07:35;;;;;;;7.97;3.78;;;21.00;95.10;;;;;;4937162;29;20027;-75
2021/07/13 01:10:16;;;;;;;5.05;3.50;;;21.00;95.20;;;;;;4954911;28;20038;-75
2021/07/13 01:13:16;;;;;;;4.85;3.55;;;21.00;95.20;;;;;;4955283;29;20027;-75
2021/07/13 01:15:48;;;;;;;5.13;3.45;;;21.00;95.20;;;;;;4918336;29;20039;-74
2021/07/13 01:18:22;;;;;;;8.15;4.05;;;20.90;95.10;;;;;;4955471;29;20059;-75
2021/07/13 01:21:32;;;;;;;7.03;4.10;;;21.00;95.40;;;;;;4938331;29;20036;-75
2021/07/13 01:24:01;;;;;;;5.93;3.35;;;21.00;95.20;;;;;;4877464;29;20555;-75
2021/07/13 01:26:37;;;;;;;4.50;3.42;;;21.00;95.00;;;;;;4861077;29;20048;-74
2021/07/13 01:29:08;;;;;;;5.78;3.42;;;21.00;94.90;;;;;;4861303;29;20041;-75
2021/07/13 01:31:37;;;;;;;4.82;3.35;;;21.00;95.00;;;;;;4876371;29;20056;-75
2021/07/13 01:34:09;;;;;;;5.75;3.88;;;21.00;95.00;;;;;;4877214;29;20037;-75
2021/07/13 01:36:44;;;;;;;6.15;3.97;;;21.10;95.00;;;;;;4876130;29;20153;-75
2021/07/13 01:39:12;;;;;;;8.50;4.35;;;21.20;95.00;;;;;;4861591;29;20029;-77
2021/07/13 01:41:39;;;;;;;5.78;4.38;;;21.20;94.80;;;;;;4876132;29;20080;-75
2021/07/13 01:44:05;;;;;;;8.40;4.63;;;21.20;94.80;;;;;;4876963;29;20035;-75
2021/07/13 01:46:32;;;;;;;7.15;4.20;;;21.20;94.80;;;;;;4876416;29;20173;-75
2021/07/13 01:48:59;;;;;;;7.07;4.43;;;21.10;94.90;;;;;;4876272;29;20161;-75
2021/07/13 01:51:27;;;;;;;7.00;4.30;;;21.10;95.00;;;;;;4876154;29;20036;-76
2021/07/13 01:53:54;;;;;;;5.53;3.95;;;21.10;95.00;;;;;;4885871;29;20127;-75
2021/07/13 01:56:22;;;;;;;6.95;4.00;;;21.00;95.10;;;;;;4935519;29;20114;-78
2021/07/13 01:58:49;;;;;;;6.20;4.07;;;21.00;95.10;;;;;;4936043;29;20118;-76
2021/07/13 02:01:20;;;;;;;6.30;4.10;;;21.00;95.20;;;;;;4937265;29;20047;-76
2021/07/13 02:03:49;;;;;;;5.75;4.22;;;21.00;95.30;;;;;;4936645;29;20067;-75
2021/07/13 02:06:17;;;;;;;6.82;4.40;;;21.00;95.20;;;;;;4937363;29;20063;-76
2021/07/13 02:08:44;;;;;;;7.50;4.63;;;21.00;95.10;;;;;;4936855;29;20023;-76
2021/07/13 02:11:11;;;;;;;6.40;4.22;;;21.00;95.10;;;;;;4937458;29;20059;-75
2021/07/13 02:13:37;;;;;;;8.80;4.25;;;21.10;95.00;;;;;;4936994;29;20030;-77
2021/07/13 02:16:06;;;;;;;8.45;3.85;;;21.00;95.20;;;;;;4937249;29;20114;-76
2021/07/13 02:18:32;;;;;;;5.65;4.10;;;20.90;95.10;;;;;;4936643;29;20055;-76
2021/07/13 02:20:58;;;;;;;5.57;3.78;;;21.00;95.10;;;;;;4936758;29;20059;-76
2021/07/13 02:23:24;;;;;;;7.65;4.65;;;20.90;95.10;;;;;;4952388;28;20027;-77
2021/07/13 02:25:54;;;;;;;7.03;4.10;;;20.90;95.20;;;;;;4956739;28;20395;-75
2021/07/13 02:28:43;;;;;;;8.27;3.70;;;20.90;95.30;;;;;;4956554;28;20054;-75
2021/07/13 02:31:24;;;;;;;4.35;3.65;;;20.90;95.30;;;;;;4955018;28;20077;-75
2021/07/13 02:34:02;;;;;;;5.10;4.10;;;20.90;95.30;;;;;;4937346;29;20031;-75
2021/07/13 02:36:31;;;;;;;7.28;4.00;;;20.80;95.40;;;;;;4954186;29;20030;-75
2021/07/13 02:38:59;;;;;;;8.32;4.25;;;20.80;95.50;;;;;;4954417;29;20023;-75
2021/07/13 02:41:26;;;;;;;5.35;3.58;;;20.80;95.40;;;;;;4936463;29;20038;-77
2021/07/13 02:43:53;;;;;;;5.40;3.60;;;20.80;95.30;;;;;;4936285;29;20034;-76
2021/07/13 02:46:23;;;;;;;5.60;3.85;;;20.70;95.30;;;;;;4936881;29;20469;-75
2021/07/13 02:48:51;;;;;;;7.40;4.05;;;20.70;95.40;;;;;;4936829;29;20105;-75
2021/07/13 02:51:18;;;;;;;5.05;3.92;;;20.80;95.60;;;;;;4937011;29;20480;-75
2021/07/13 02:53:45;;;;;;;4.90;3.40;;;20.80;95.40;;;;;;4953979;29;20042;-75
2021/07/13 02:56:13;;;;;;;4.95;3.50;;;20.70;95.40;;;;;;4954152;29;20449;-75
2021/07/13 02:58:40;;;;;;;7.15;3.50;;;20.80;95.40;;;;;;4935756;28;20027;-75
2021/07/13 03:01:07;;;;;;;5.88;3.53;;;20.80;95.40;;;;;;4936367;29;20043;-75
2021/07/13 03:03:34;;;;;;;5.03;3.88;;;20.70;95.50;;;;;;4953297;29;20028;-75
2021/07/13 03:06:02;;;;;;;4.68;3.78;;;20.70;95.60;;;;;;4953856;29;20094;-75
2021/07/13 03:08:28;;;;;;;5.80;3.95;;;20.70;95.60;;;;;;4953022;29;20473;-75
2021/07/13 03:10:58;;;;;;;5.45;4.07;;;20.70;95.60;;;;;;4936702;29;20066;-75
2021/07/13 03:13:24;;;;;;;5.25;3.53;;;20.70;95.70;;;;;;4936675;29;20568;-77
2021/07/13 03:15:51;;;;;;;5.07;3.67;;;20.70;95.60;;;;;;4936739;29;20122;-74
2021/07/13 03:18:18;;;;;;;6.45;3.78;;;20.70;95.50;;;;;;4936621;29;20030;-75
2021/07/13 03:20:48;;;;;;;8.68;4.07;;;20.70;95.50;;;;;;4936242;29;20039;-75
2021/07/13 03:23:17;;;;;;;7.93;3.85;;;20.70;95.60;;;;;;4936609;29;20023;-75
2021/07/13 03:25:45;;;;;;;7.00;4.15;;;20.70;95.70;;;;;;4936445;29;20083;-75
2021/07/13 03:28:13;;;;;;;6.28;4.40;;;20.70;95.70;;;;;;4953121;29;20023;-76
2021/07/13 03:30:41;;;;;;;5.30;4.13;;;20.70;95.60;;;;;;4953188;29;20032;-75
2021/07/13 03:33:09;;;;;;;6.65;4.07;;;20.70;95.60;;;;;;4938217;29;20027;-76
2021/07/13 03:35:35;;;;;;;5.18;3.90;;;20.70;95.70;;;;;;4956380;29;20035;-76
2021/07/13 03:38:01;;;;;;;6.90;4.32;;;20.70;95.80;;;;;;4940034;29;20475;-75
2021/07/13 03:40:28;;;;;;;7.13;4.20;;;20.80;95.80;;;;;;4939376;29;20028;-78
2021/07/13 03:42:55;;;;;;;4.88;3.53;;;20.80;95.60;;;;;;4957658;29;20035;-75
2021/07/13 03:45:21;;;;;;;7.10;4.65;;;20.70;95.70;;;;;;4939729;29;20039;-75
2021/07/13 03:47:53;;;;;;;6.20;4.30;;;20.70;95.60;;;;;;4956301;29;20023;-75
2021/07/13 03:50:22;;;;;;;6.90;4.60;;;20.70;95.60;;;;;;4939433;29;20031;-76
2021/07/13 03:52:48;;;;;;;7.93;4.72;;;20.80;95.40;;;;;;4939120;29;20031;-74
2021/07/13 03:55:15;;;;;;;8.52;4.30;;;20.80;95.40;;;;;;4939472;29;20035;-75
2021/07/13 03:57:41;;;;;;;6.40;4.82;;;20.80;95.40;;;;;;4939197;29;20465;-76
2021/07/13 04:00:12;;;;;;;7.70;5.00;;;20.70;95.60;;;;;;4956649;29;20051;-76
2021/07/13 04:02:38;;;;;;;6.30;4.88;;;20.60;95.70;;;;;;4938879;29;20130;-76
2021/07/13 04:05:06;;;;;;;5.35;4.43;;;20.70;95.70;;;;;;4939189;29;20035;-76
2021/07/13 04:07:33;;;;;;;6.13;4.30;;;20.60;95.70;;;;;;4945674;29;20027;-76
2021/07/13 04:09:58;;;;;;;4.78;3.97;;;20.60;95.60;;;;;;4939706;29;20374;-75
2021/07/13 04:12:24;;;;;;;5.45;3.97;;;20.70;95.50;;;;;;4939396;29;20031;-76
2021/07/13 04:14:49;;;;;;;5.40;4.18;;;20.80;95.40;;;;;;4956403;29;20079;-76
2021/07/13 04:17:15;;;;;;;6.32;4.80;;;20.80;95.30;;;;;;4956543;29;20046;-76
2021/07/13 04:19:41;;;;;;;6.22;4.63;;;20.80;95.30;;;;;;4956622;29;20465;-75
2021/07/13 04:22:06;;;;;;;5.70;4.32;;;20.70;95.10;;;;;;4956650;29;20034;-75
2021/07/13 04:24:32;;;;;;;5.88;4.68;;;20.70;95.20;;;;;;4938586;29;20122;-75
2021/07/13 04:26:58;;;;;;;7.68;4.78;;;20.80;95.30;;;;;;4939659;29;20027;-75
2021/07/13 04:29:23;;;;;;;5.75;4.65;;;20.70;95.40;;;;;;4956632;29;20828;-75
2021/07/13 04:31:49;;;;;;;4.93;3.97;;;20.70;95.60;;;;;;4956099;29;20147;-76
2021/07/13 04:34:14;;;;;;;5.88;4.25;;;20.80;95.20;;;;;;4939337;29;20078;-76
2021/07/13 04:36:41;;;;;;;5.82;4.38;;;20.70;95.20;;;;;;4938731;29;20038;-76
2021/07/13 04:39:08;;;;;;;6.57;4.63;;;20.80;95.20;;;;;;4956882;29;20030;-75
2021/07/13 04:41:34;;;;;;;8.02;5.00;;;20.70;95.30;;;;;;4955638;29;20039;-75
2021/07/13 04:44:00;;;;;;;7.05;5.30;;;20.80;95.40;;;;;;4938149;29;20538;-75
2021/07/13 04:46:27;;;;;;;6.20;5.07;;;20.70;95.50;;;;;;4938753;29;20104;-75
2021/07/13 04:48:53;;;;;;;8.27;4.85;;;20.70;95.50;;;;;;4938299;29;20024;-75
2021/07/13 04:51:18;;;;;;;6.70;5.43;;;20.70;95.50;;;;;;4939005;29;20031;-76
2021/07/13 04:53:44;;;;;;;7.63;6.07;;;20.70;95.60;;;;;;4938450;29;20122;-75
2021/07/13 04:56:10;;;;;;;7.65;5.65;;;20.60;95.60;;;;;;4938166;29;20031;-75
2021/07/13 04:58:35;;;;;;;8.90;5.93;;;20.60;95.80;;;;;;4938150;29;20126;-75
2021/07/13 05:01:01;;;;;;;8.95;5.97;;;20.60;95.70;;;;;;4938954;29;20091;-75
2021/07/13 05:03:26;;;;;;;8.27;5.88;;;20.60;95.70;;;;;;4938704;29;20035;-75
2021/07/13 05:05:52;;;;;;;8.70;6.30;;;20.60;95.60;;;;;;4938246;29;20023;-76
2021/07/13 05:08:18;;;;;;;10.18;5.93;;;20.60;95.70;;;;;;4937164;29;20390;-76
2021/07/13 05:10:44;;;;;;;13.93;6.68;;;20.50;95.80;;;;;;4929534;29;20135;-76
2021/07/13 05:13:11;;;;;;;16.23;7.25;;;20.40;95.90;;;;;;4938759;29;20020;-76
2021/07/13 05:15:39;;;;;;;24.70;7.45;;;20.40;96.00;;;;;;4955571;29;20023;-75
2021/07/13 05:18:10;;;;;;;18.33;6.60;;;20.40;96.10;;;;;;4955220;29;20027;-76
2021/07/13 05:20:36;;;;;;;12.25;6.47;;;20.50;96.10;;;;;;4937726;29;20035;-76
2021/07/13 05:23:08;;;;;;;8.70;5.63;;;20.50;96.10;;;;;;4938111;29;20082;-76
2021/07/13 05:25:36;;;;;;;9.13;5.88;;;20.60;95.90;;;;;;4937538;29;20166;-75
2021/07/13 05:28:02;;;;;;;9.48;5.88;;;20.60;95.80;;;;;;4955346;28;20453;-75
2021/07/13 05:30:29;;;;;;;8.90;6.03;;;20.60;95.70;;;;;;4937468;29;20035;-76
2021/07/13 05:32:54;;;;;;;8.60;6.10;;;20.60;95.70;;;;;;4955046;28;20158;-75
2021/07/13 05:35:21;;;;;;;6.63;5.30;;;20.60;95.80;;;;;;4937613;29;20117;-75
2021/07/13 05:37:47;;;;;;;9.63;5.70;;;20.60;95.90;;;;;;4937731;29;20027;-75
2021/07/13 05:40:14;;;;;;;8.57;6.22;;;20.60;95.90;;;;;;4938076;29;20042;-75
2021/07/13 05:42:40;;;;;;;15.57;8.60;;;20.60;95.90;;;;;;4954414;29;20027;-76
2021/07/13 05:45:08;;;;;;;18.52;12.15;;;20.50;96.00;;;;;;4955126;29;20027;-76
2021/07/13 05:47:34;;;;;;;10.55;7.80;;;20.50;96.20;;;;;;4942034;28;20026;-76
2021/07/13 05:50:00;;;;;;;10.85;6.55;;;20.40;96.20;;;;;;4957159;28;20370;-75
2021/07/13 05:52:26;;;;;;;11.73;6.80;;;20.50;96.30;;;;;;4956632;28;20033;-75
2021/07/13 05:54:51;;;;;;;9.73;6.10;;;20.50;96.00;;;;;;4946473;28;20031;-75
2021/07/13 05:57:17;;;;;;;8.05;5.53;;;20.50;95.90;;;;;;4936381;29;20121;-75
2021/07/13 05:59:43;;;;;;;9.45;5.88;;;20.60;95.90;;;;;;4952890;29;20401;-76
2021/07/13 06:02:09;;;;;;;8.40;5.18;;;20.60;95.80;;;;;;4937479;29;20039;-78
2021/07/13 06:04:35;;;;;;;12.45;5.70;;;20.60;95.70;;;;;;4936588;29;20031;-78
2021/07/13 06:07:00;;;;;;;11.60;6.03;;;20.60;95.50;;;;;;4937658;29;20031;-75
2021/07/13 06:09:27;;;;;;;8.95;5.50;;;20.70;95.60;;;;;;4954887;29;20050;-76
2021/07/13 06:12:02;;;;;;;8.90;5.70;;;20.80;95.70;;;;;;4937403;29;20027;-75
2021/07/13 06:14:27;;;;;;;7.63;4.75;;;20.80;95.20;;;;;;4955109;29;20453;-77
2021/07/13 06:16:53;;;;;;;7.90;5.43;;;20.90;95.10;;;;;;4954254;29;20122;-76
2021/07/13 06:19:19;;;;;;;7.65;4.97;;;20.90;95.00;;;;;;4936566;29;20027;-76
2021/07/13 06:21:45;;;;;;;6.25;4.88;;;20.80;95.10;;;;;;4936795;29;20042;-76
2021/07/13 06:24:12;;;;;;;7.68;5.25;;;20.80;95.30;;;;;;4937403;29;20031;-76
2021/07/13 06:26:38;;;;;;;7.07;4.82;;;20.70;95.40;;;;;;4936183;29;20043;-75
2021/07/13 06:29:04;;;;;;;6.28;4.80;;;20.70;95.40;;;;;;4954757;29;20395;-78
2021/07/13 06:31:30;;;;;;;7.88;5.00;;;20.80;95.60;;;;;;4937171;29;20039;-77
2021/07/13 06:33:56;;;;;;;8.02;4.90;;;20.70;95.40;;;;;;4937296;29;20063;-78
2021/07/13 06:36:21;;;;;;;6.32;4.65;;;20.80;95.30;;;;;;4937575;29;20023;-76
2021/07/13 06:38:47;;;;;;;5.50;4.53;;;20.80;95.30;;;;;;4936198;29;20031;-77
2021/07/13 06:41:13;;;;;;;6.80;4.72;;;20.80;95.20;;;;;;4953848;29;20089;-76
2021/07/13 06:43:38;;;;;;;6.88;4.90;;;20.80;95.30;;;;;;4924588;29;20028;-78
2021/07/13 06:46:04;;;;;;;5.63;4.60;;;20.80;95.40;;;;;;4918628;29;20042;-80
2021/07/13 06:48:31;;;;;;;5.82;4.35;;;20.80;95.50;;;;;;4921288;29;20167;-74
2021/07/13 06:50:56;;;;;;;4.45;3.42;;;20.80;95.40;;;;;;4925005;29;20125;-75
2021/07/13 06:53:22;;;;;;;3.45;2.88;;;20.70;95.20;;;;;;4952171;28;20155;-74
2021/07/13 06:55:48;;;;;;;4.20;2.70;;;20.70;95.10;;;;;;4934434;29;20078;-73
2021/07/13 06:58:14;;;;;;;4.35;3.13;;;20.70;94.90;;;;;;4926131;29;20031;-79
2021/07/13 07:00:40;;;;;;;4.05;3.50;;;20.50;94.80;;;;;;4926222;29;20059;-81
2021/07/13 07:03:05;;;;;;;5.45;3.03;;;20.50;94.90;;;;;;4935091;29;20456;-78
2021/07/13 07:05:31;;;;;;;4.68;3.15;;;20.40;94.90;;;;;;4950905;29;20512;-75
2021/07/13 07:07:58;;;;;;;4.43;2.97;;;20.30;95.10;;;;;;4921929;29;20034;-76
2021/07/13 07:10:24;;;;;;;3.15;2.05;;;20.30;95.30;;;;;;4944322;29;20046;-78
2021/07/13 07:12:51;;;;;;;1.95;1.30;;;20.20;95.10;;;;;;4929641;29;20027;-77
2021/07/13 07:15:17;;;;;;;3.38;1.00;;;20.00;95.00;;;;;;4936901;29;20091;-77
2021/07/13 07:17:44;;;;;;;2.00;0.90;;;19.90;95.10;;;;;;4936226;29;20042;-76
2021/07/13 07:20:10;;;;;;;1.58;0.98;;;19.80;95.20;;;;;;4937179;29;20198;-76
2021/07/13 07:22:37;;;;;;;0.75;0.75;;;19.70;95.20;;;;;;4953818;29;20218;-76
2021/07/13 07:25:03;;;;;;;0.90;0.80;;;19.60;95.30;;;;;;4936908;29;20031;-76
2021/07/13 07:27:28;;;;;;;0.98;0.80;;;19.50;95.60;;;;;;4953644;29;20453;-79
2021/07/13 07:29:54;;;;;;;1.75;0.80;;;19.40;95.80;;;;;;4953899;29;20059;-85
2021/07/13 07:32:20;;;;;;;0.90;0.80;;;19.40;95.90;;;;;;4937092;29;20397;-85
2021/07/13 07:34:45;;;;;;;1.42;0.90;;;19.40;96.00;;;;;;4964785;28;20492;-84
2021/07/13 07:37:11;;;;;;;1.92;0.90;;;19.40;96.00;;;;;;4956770;28;20027;-82
2021/07/13 07:39:37;;;;;;;0.93;0.73;;;19.40;96.00;;;;;;4942951;29;20117;-75
2021/07/13 07:42:04;;;;;;;1.55;0.88;;;19.40;96.00;;;;;;4936820;29;20059;-76
2021/07/13 07:44:29;;;;;;;1.42;0.70;;;19.40;96.00;;;;;;4936753;29;20457;-76
2021/07/13 07:46:55;;;;;;;1.10;1.00;;;19.40;95.90;;;;;;4953143;29;20027;-77
2021/07/13 07:49:21;;;;;;;1.25;0.90;;;19.40;96.00;;;;;;4936933;29;20031;-78
2021/07/13 07:51:46;;;;;;;1.35;1.00;;;19.30;95.90;;;;;;4936480;29;20429;-77
2021/07/13 07:54:12;;;;;;;1.00;0.90;;;19.40;95.90;;;;;;4937044;29;20046;-77
2021/07/13 07:56:38;;;;;;;1.33;0.82;;;19.40;95.90;;;;;;4954021;29;20484;-78
2021/07/13 07:59:04;;;;;;;1.98;0.80;;;19.40;95.80;;;;;;4936887;29;20060;-77
2021/07/13 08:01:30;;;;;;;1.98;1.00;;;19.40;95.80;;;;;;4937138;29;20043;-78
2021/07/13 08:03:56;;;;;;;1.33;0.90;;;19.30;95.80;;;;;;4953275;29;20064;-79
2021/07/13 08:06:22;;;;;;;1.77;1.13;;;19.30;95.90;;;;;;4936615;29;20460;-79
2021/07/13 08:08:47;;;;;;;4.68;1.30;;;19.30;95.90;;;;;;4953209;29;20035;-79
2021/07/13 08:11:13;;;;;;;1.20;1.10;;;19.20;95.80;;;;;;4935802;29;20062;-78
2021/07/13 08:13:39;;;;;;;1.27;1.17;;;19.20;95.80;;;;;;4935402;29;20043;-81
2021/07/13 08:16:04;;;;;;;0.73;0.60;;;19.20;95.90;;;;;;4953468;29;20576;-78
2021/07/13 08:18:30;;;;;;;2.05;1.10;;;19.00;95.60;;;;;;4954375;28;20051;-77
2021/07/13 08:20:56;;;;;;;1.27;0.32;;;18.90;95.40;;;;;;4939486;29;20031;-78
2021/07/13 08:23:22;;;;;;;1.40;0.22;;;18.80;94.90;;;;;;4940343;29;20028;-77
2021/07/13 08:25:48;;;;;;;0.25;0.20;;;18.60;94.70;;;;;;4938601;29;20416;-78
2021/07/13 08:28:13;;;;;;;0.70;0.20;;;18.50;94.30;;;;;;4939544;29;20498;-77
2021/07/13 08:30:39;;;;;;;0.77;0.40;;;18.40;94.90;;;;;;4956439;29;20110;-78
2021/07/13 08:33:05;;;;;;;0.80;0.32;;;18.20;94.50;;;;;;4923536;29;20122;-79
2021/07/13 08:35:30;;;;;;;0.52;0.20;;;18.10;94.70;;;;;;4929847;29;20027;-77
2021/07/13 08:37:56;;;;;;;0.93;0.32;;;17.90;94.80;;;;;;4956212;29;20051;-78
2021/07/13 08:40:22;;;;;;;1.63;0.10;;;17.80;95.20;;;;;;4939790;29;20090;-77
2021/07/13 08:42:47;;;;;;;0.15;0.10;;;17.80;95.50;;;;;;4939085;29;20117;-76
2021/07/13 08:45:16;;;;;;;0.75;0.20;;;17.80;95.40;;;;;;4939119;29;20118;-77
2021/07/13 08:47:44;;;;;;;0.65;0.20;;;17.70;95.60;;;;;;4955818;29;20019;-77
2021/07/13 08:50:10;;;;;;;0.65;0.30;;;17.70;95.40;;;;;;4956276;29;20023;-77
2021/07/13 08:52:36;;;;;;;0.70;0.20;;;17.60;95.60;;;;;;4956504;29;20031;-81
2021/07/13 08:55:04;;;;;;;0.60;0.17;;;17.60;95.70;;;;;;4939936;29;20372;-78
2021/07/13 08:57:30;;;;;;;1.38;0.28;;;17.50;95.50;;;;;;4939219;29;20023;-77
2021/07/13 08:59:56;;;;;;;0.35;0.15;;;17.50;95.80;;;;;;4938025;29;20110;-77
2021/07/13 09:02:22;;;;;;;0.20;0.20;;;17.40;95.60;;;;;;4956485;29;20066;-78
2021/07/13 09:04:48;;;;;;;0.30;0.22;;;17.40;95.90;;;;;;4937177;29;20031;-77
2021/07/13 09:07:17;;;;;;;1.58;0.30;;;17.40;95.90;;;;;;4939355;29;20059;-81
2021/07/13 09:09:47;;;;;;;0.28;0.20;;;17.40;95.70;;;;;;4939333;29;20074;-78
2021/07/13 09:12:19;;;;;;;1.67;0.20;;;17.30;95.80;;;;;;4939014;29;20027;-80
2021/07/13 09:14:48;;;;;;;1.00;0.20;;;17.30;95.70;;;;;;4956790;29;20035;-90
2021/07/13 09:17:33;;;;;;;0.65;0.28;;;17.20;95.60;;;;;;4957023;28;20031;-88
2021/07/13 09:20:10;;;;;;;0.60;0.20;;;17.20;95.60;;;;;;4940151;29;20190;-92
2021/07/13 09:22:50;;;;;;;0.32;0.30;;;17.20;95.80;;;;;;4956586;29;20027;-79
2021/07/13 09:25:29;;;;;;;0.50;0.30;;;17.20;95.80;;;;;;4956136;29;20070;-79
2021/07/13 09:28:08;;;;;;;0.40;0.30;;;17.10;95.50;;;;;;4938498;29;20033;-78
2021/07/13 09:30:34;;;;;;;2.97;0.30;;;17.00;96.00;;;;;;4938253;29;20035;-77
2021/07/13 09:33:15;;;;;;;0.45;0.40;;;17.00;96.00;;;;;;4938098;29;20123;-76
2021/07/13 09:36:00;;;;;;;0.40;0.30;;;16.90;96.20;;;;;;4938091;29;20114;-78
2021/07/13 09:38:27;;;;;;;1.75;0.32;;;16.90;96.20;;;;;;4956046;29;20035;-76
2021/07/13 09:41:13;;;;;;;0.85;0.30;;;16.90;96.20;;;;;;4938247;29;20031;-76
2021/07/13 09:43:42;;;;;;;0.20;0.20;;;16.80;95.90;;;;;;4939072;29;20034;-80
2021/07/13 09:46:29;;;;;;;2.67;0.28;;;16.70;95.90;;;;;;4955920;29;20027;-77
2021/07/13 09:49:24;;;;;;;0.77;0.47;;;16.70;96.00;;;;;;4935565;29;20027;-76
2021/07/13 09:51:57;;;;;;;1.38;0.20;;;16.60;96.30;;;;;;4926858;29;20110;-77
2021/07/13 09:54:31;;;;;;;0.28;0.20;;;16.60;96.50;;;;;;4937395;29;20031;-77
2021/07/13 09:56:58;;;;;;;0.30;0.20;;;16.60;96.60;;;;;;4936668;29;20019;-77
2021/07/13 09:59:24;;;;;;;0.50;0.20;;;16.60;96.60;;;;;;4953817;28;20159;-77
2021/07/13 10:01:50;;;;;;;1.38;0.20;;;16.60;96.60;;;;;;4953771;29;20520;-78
2021/07/13 10:04:16;;;;;;;0.10;0.10;;;16.70;96.70;;;;;;4955387;29;20034;-76
2021/07/13 10:06:45;;;;;;;0.30;0.20;;;16.70;96.60;;;;;;4937572;29;20031;-78
2021/07/13 10:09:11;;;;;;;0.65;0.10;;;16.80;96.70;;;;;;4935669;29;20034;-77
2021/07/13 10:11:39;;;;;;;0.30;0.15;;;16.80;96.80;;;;;;4954390;28;20062;-79
2021/07/13 10:14:10;;;;;;;1.02;0.10;;;16.70;96.80;;;;;;4956968;29;20042;-83
2021/07/13 10:16:36;;;;;;;0.63;0.20;;;16.70;96.90;;;;;;4938722;29;20051;-78
2021/07/13 10:19:05;;;;;;;3.35;0.10;;;16.80;96.60;;;;;;4937969;29;20495;-76
2021/07/13 10:21:31;;;;;;;0.77;0.10;;;16.80;96.70;;;;;;4937580;29;20046;-78
2021/07/13 10:23:58;;;;;;;0.28;0.20;;;16.70;96.60;;;;;;4936483;29;20432;-77
2021/07/13 10:26:47;;;;;;;1.80;0.25;;;16.70;96.80;;;;;;4936939;29;20122;-79
2021/07/13 10:29:32;;;;;;;1.25;0.30;;;16.80;96.60;;;;;;4936125;29;20038;-79
2021/07/13 10:32:02;;;;;;;0.93;0.20;;;16.80;96.40;;;;;;4950907;29;20110;-79
2021/07/13 10:34:48;;;;;;;1.20;0.10;;;16.80;96.30;;;;;;4954731;29;20366;-79
2021/07/13 10:37:40;;;;;;;1.23;0.25;;;16.70;96.10;;;;;;4955045;29;20054;-78
2021/07/13 10:40:33;;;;;;;1.00;0.20;;;16.70;96.10;;;;;;4937297;29;20046;-78
2021/07/13 10:43:02;;;;;;;0.60;0.17;;;16.70;96.60;;;;;;4937663;29;20031;-80
2021/07/13 10:45:36;;;;;;;1.33;0.20;;;16.70;96.20;;;;;;4954385;29;20058;-79
2021/07/13 10:48:09;;;;;;;0.75;0.25;;;16.70;96.20;;;;;;4936131;29;20234;-77
2021/07/13 10:50:40;;;;;;;0.40;0.13;;;16.70;96.20;;;;;;4937256;29;20031;-79
2021/07/13 10:53:18;;;;;;;1.65;0.17;;;16.80;96.20;;;;;;4936148;29;20121;-77
2021/07/13 10:55:57;;;;;;;0.75;0.10;;;16.80;96.40;;;;;;4937048;29;20028;-76
2021/07/13 10:58:42;;;;;;;1.20;0.10;;;16.80;96.20;;;;;;4937229;29;20052;-76
2021/07/13 11:01:14;;;;;;;0.40;0.20;;;17.00;96.00;;;;;;4936683;28;20043;-78
2021/07/13 11:03:39;;;;;;;0.30;0.10;;;17.10;95.50;;;;;;4936768;29;20061;-77
2021/07/13 11:06:09;;;;;;;0.85;0.15;;;17.10;95.50;;;;;;4936198;29;20436;-77
2021/07/13 11:08:41;;;;;;;0.40;0.15;;;17.10;95.60;;;;;;4952686;29;20038;-78
2021/07/13 11:11:06;;;;;;;1.55;0.30;;;17.20;95.70;;;;;;4935765;29;20035;-77
2021/07/13 11:13:33;;;;;;;0.30;0.20;;;17.20;95.60;;;;;;4953675;29;20436;-75
2021/07/13 11:15:58;;;;;;;0.28;0.15;;;17.30;95.50;;;;;;4930912;29;20023;-81
2021/07/13 11:18:29;;;;;;;0.35;0.10;;;17.30;95.20;;;;;;4954902;29;20031;-83
2021/07/13 11:20:55;;;;;;;0.20;0.10;;;17.30;95.30;;;;;;4937921;29;20050;-84
2021/07/13 11:23:27;;;;;;;0.60;0.20;;;17.20;95.20;;;;;;4937985;29;20397;-77
2021/07/13 11:26:07;;;;;;;1.38;0.20;;;17.20;94.90;;;;;;4948340;29;20024;-77
2021/07/13 11:28:33;;;;;;;0.38;0.20;;;17.10;95.10;;;;;;4920157;29;20101;-81
2021/07/13 11:30:59;;;;;;;0.73;0.30;;;17.00;95.10;;;;;;4952749;29;20043;-79
2021/07/13 11:33:27;;;;;;;1.67;0.20;;;17.00;95.10;;;;;;4935380;29;20035;-78
2021/07/13 11:35:56;;;;;;;2.17;0.20;;;17.20;95.30;;;;;;4936062;29;20023;-78
2021/07/13 11:38:34;;;;;;;0.77;0.28;;;17.10;95.20;;;;;;4937053;29;20030;-75
2021/07/13 11:41:16;;;;;;;1.20;0.20;;;17.20;95.10;;;;;;4935054;29;20505;-80
2021/07/13 11:43:43;;;;;;;0.50;0.20;;;17.30;94.70;;;;;;4954830;29;20170;-79
2021/07/13 11:46:36;;;;;;;0.93;0.20;;;17.30;94.80;;;;;;4936678;29;20034;-77
2021/07/13 11:49:15;;;;;;;1.15;0.30;;;17.30;94.90;;;;;;4932185;29;20034;-78
2021/07/13 11:51:56;;;;;;;2.22;0.22;;;17.40;94.70;;;;;;4937086;29;20150;-77
2021/07/13 11:54:30;;;;;;;0.50;0.22;;;17.20;95.00;;;;;;4938616;29;20027;-78
2021/07/13 11:56:58;;;;;;;0.65;0.30;;;17.20;94.90;;;;;;4940068;29;20090;-78
2021/07/13 11:59:26;;;;;;;0.28;0.20;;;17.10;94.90;;;;;;4933411;29;20052;-79
2021/07/13 12:01:55;;;;;;;0.93;0.30;;;17.20;94.80;;;;;;4921194;29;20075;-78
2021/07/13 12:04:22;;;;;;;0.47;0.22;;;17.20;95.10;;;;;;4921804;29;20028;-76
2021/07/13 12:07:01;;;;;;;0.63;0.35;;;17.20;95.10;;;;;;4937987;29;20159;-78
2021/07/13 12:09:29;;;;;;;0.70;0.40;;;17.30;95.10;;;;;;4921311;29;20034;-78
2021/07/13 12:11:58;;;;;;;1.70;0.30;;;17.30;95.10;;;;;;4937530;29;20392;-78
2021/07/13 12:14:25;;;;;;;1.80;0.50;;;17.40;94.80;;;;;;4937249;29;20036;-76
2021/07/13 12:16:54;;;;;;;0.40;0.30;;;17.40;94.40;;;;;;4919940;29;20039;-76
2021/07/13 12:19:22;;;;;;;1.05;0.30;;;17.40;94.60;;;;;;4936768;29;20028;-75
2021/07/13 12:21:58;;;;;;;0.60;0.35;;;17.40;95.00;;;;;;4936316;29;20046;-79
2021/07/13 12:24:46;;;;;;;1.45;0.50;;;17.40;94.60;;;;;;4937604;29;20115;-78
2021/07/13 12:27:15;;;;;;;0.38;0.35;;;17.40;94.60;;;;;;4920484;29;20016;-77
2021/07/13 12:29:59;;;;;;;0.40;0.38;;;17.30;94.60;;;;;;4937858;29;20035;-78
2021/07/13 12:32:30;;;;;;;0.30;0.30;;;17.30;94.60;;;;;;4920603;29;20031;-80
2021/07/13 12:34:56;;;;;;;0.90;0.50;;;17.30;94.70;;;;;;4937683;29;20098;-79
2021/07/13 12:37:26;;;;;;;0.63;0.50;;;17.30;94.70;;;;;;4937415;29;20074;-82
2021/07/13 12:39:53;;;;;;;0.60;0.32;;;17.30;94.80;;;;;;4919910;29;20027;-76
2021/07/13 12:42:24;;;;;;;1.17;0.28;;;17.40;94.60;;;;;;4920388;29;20031;-76
2021/07/13 12:44:50;;;;;;;0.43;0.30;;;17.30;94.40;;;;;;4919732;29;20028;-77
2021/07/13 12:47:19;;;;;;;1.02;0.35;;;17.30;94.50;;;;;;4937517;29;20031;-77
2021/07/13 12:50:05;;;;;;;0.50;0.30;;;17.40;94.60;;;;;;4920290;29;20469;-76
2021/07/13 12:52:37;;;;;;;0.77;0.47;;;17.40;94.60;;;;;;4936887;29;20035;-78
2021/07/13 12:55:12;;;;;;;0.90;0.30;;;17.30;94.60;;;;;;4935768;29;20039;-78